createdAt,value
2023-04-01T00:01:51.346Z,100688.81
2023-04-01T00:04:18.915Z,100685.44
2023-04-01T00:06:46.000Z,100681.00
2023-04-01T00:09:14.021Z,100678.25
2023-04-01T00:11:41.215Z,100695.63
2023-04-01T00:14:08.800Z,100697.41
2023-04-01T00:16:35.843Z,100703.53
2023-04-01T00:19:03.350Z,100701.22
2023-04-01T00:21:30.839Z,100699.81
2023-04-01T00:23:58.499Z,100709.97
2023-04-01T00:26:26.003Z,100709.31
2023-04-01T00:28:53.464Z,100721.19
2023-04-01T00:31:21.684Z,100721.06
2023-04-01T00:33:49.310Z,100721.03
2023-04-01T00:36:18.609Z,100725.59
2023-04-01T00:38:46.630Z,100729.31
2023-04-01T00:41:16.212Z,100723.91
2023-04-01T00:43:45.380Z,100737.03
2023-04-01T00:46:13.071Z,100735.63
2023-04-01T00:48:46.734Z,100739.19
2023-04-01T00:51:18.749Z,100734.00
2023-04-01T00:53:48.301Z,100734.38
2023-04-01T00:56:21.785Z,100742.16
2023-04-01T00:58:55.881Z,100749.31
2023-04-01T01:01:23.434Z,100753.78
2023-04-01T01:03:50.933Z,100747.22
2023-04-01T01:06:40.074Z,100762.50
2023-04-01T01:09:41.412Z,100772.91
2023-04-01T01:12:26.894Z,100771.47
2023-04-01T01:15:15.194Z,100768.91
2023-04-01T01:17:54.950Z,100777.34
2023-04-01T01:20:59.660Z,100778.34
2023-04-01T01:24:05.545Z,100780.09
2023-04-01T01:26:52.988Z,100784.97
2023-04-01T01:30:02.199Z,100785.03
2023-04-01T01:32:38.590Z,100789.13
2023-04-01T01:35:24.010Z,100781.00
2023-04-01T01:38:07.396Z,100791.81
2023-04-01T01:40:34.583Z,100789.38
2023-04-01T01:43:06.259Z,100792.03
2023-04-01T01:45:35.534Z,100808.78
2023-04-01T01:48:04.081Z,100808.56
2023-04-01T01:50:31.754Z,100803.81
2023-04-01T01:53:04.678Z,100813.25
2023-04-01T01:55:34.319Z,100816.22
2023-04-01T01:58:08.989Z,100809.91
2023-04-01T02:00:39.346Z,100808.41
2023-04-01T02:03:06.849Z,100813.63
2023-04-01T02:05:34.679Z,100815.09
2023-04-01T02:08:39.126Z,100819.97
2023-04-01T02:11:10.516Z,100820.13
2023-04-01T02:13:47.719Z,100823.47
2023-04-01T02:16:27.707Z,100830.94
2023-04-01T02:18:55.356Z,100822.31
2023-04-01T02:21:24.066Z,100829.59
2023-04-01T02:23:51.399Z,100830.50
2023-04-01T02:26:18.467Z,100827.31
2023-04-01T02:28:45.918Z,100831.28
2023-04-01T02:31:13.310Z,100835.13
2023-04-01T02:33:40.907Z,100844.09
2023-04-01T02:36:12.222Z,100852.28
2023-04-01T02:38:39.736Z,100851.00
2023-04-01T02:41:07.482Z,100846.94
2023-04-01T02:43:34.983Z,100854.84
2023-04-01T02:46:02.636Z,100855.53
2023-04-01T02:48:30.126Z,100859.97
2023-04-01T02:50:57.497Z,100858.38
2023-04-01T02:53:25.191Z,100862.41
2023-04-01T02:55:53.102Z,100867.22
2023-04-01T02:58:20.459Z,100851.25
2023-04-01T03:00:47.984Z,100862.75
2023-04-01T03:03:15.563Z,100866.78
2023-04-01T03:05:43.161Z,100881.38
2023-04-01T03:08:11.259Z,100872.44
2023-04-01T03:10:38.863Z,100884.31
2023-04-01T03:13:06.953Z,100887.13
2023-04-01T03:15:35.443Z,100888.34
2023-04-01T03:18:04.196Z,100885.47
2023-04-01T03:20:32.484Z,100896.63
2023-04-01T03:22:59.540Z,100902.31
2023-04-01T03:25:29.416Z,100891.09
2023-04-01T03:27:56.801Z,100888.03
2023-04-01T03:30:24.519Z,100888.13
2023-04-01T03:32:51.875Z,100903.19
2023-04-01T03:35:19.044Z,100893.72
2023-04-01T03:37:46.693Z,100912.34
2023-04-01T03:40:14.137Z,100904.63
2023-04-01T03:42:41.942Z,100915.75
2023-04-01T03:45:09.969Z,100913.13
2023-04-01T03:47:37.099Z,100916.06
2023-04-01T03:50:05.487Z,100917.56
2023-04-01T03:52:33.087Z,100904.34
2023-04-01T03:55:00.537Z,100917.63
2023-04-01T03:57:28.277Z,100908.03
2023-04-01T04:00:00.583Z,100915.91
2023-04-01T04:02:27.904Z,100909.31
2023-04-01T04:04:55.650Z,100923.84
2023-04-01T04:07:23.076Z,100918.75
2023-04-01T04:10:09.644Z,100912.72
2023-04-01T04:12:37.326Z,100913.34
2023-04-01T04:15:05.369Z,100920.69
2023-04-01T04:17:32.648Z,100912.06
2023-04-01T04:20:00.191Z,100912.13
2023-04-01T04:22:27.948Z,100916.59
2023-04-01T04:24:55.749Z,100913.69
2023-04-01T04:27:23.039Z,100921.53
2023-04-01T04:30:09.071Z,100926.19
2023-04-01T04:32:37.913Z,100928.25
2023-04-01T04:35:07.370Z,100918.56
2023-04-01T04:37:35.107Z,100908.34
2023-04-01T04:40:02.545Z,100910.91
2023-04-01T04:42:31.001Z,100914.97
2023-04-01T04:45:04.362Z,100917.28
2023-04-01T04:47:32.595Z,100913.59
2023-04-01T04:49:59.700Z,100915.31
2023-04-01T04:52:27.168Z,100915.28
2023-04-01T04:54:54.298Z,100920.97
2023-04-01T04:57:21.950Z,100922.72
2023-04-01T04:59:55.321Z,100925.72
2023-04-01T05:02:38.879Z,100923.31
2023-04-01T05:05:06.947Z,100928.28
2023-04-01T05:07:34.385Z,100926.78
2023-04-01T05:10:01.752Z,100914.31
2023-04-01T05:12:29.289Z,100913.69
2023-04-01T05:15:01.879Z,100903.25
2023-04-01T05:17:30.011Z,100929.81
2023-04-01T05:19:58.499Z,100926.66
2023-04-01T05:22:26.922Z,100921.13
2023-04-01T05:24:54.533Z,100921.22
2023-04-01T05:27:22.449Z,100924.19
2023-04-01T05:29:50.225Z,100923.31
2023-04-01T05:32:37.799Z,100934.00
2023-04-01T05:35:05.527Z,100931.25
2023-04-01T05:37:37.809Z,100933.19
2023-04-01T05:40:06.342Z,100928.53
2023-04-01T05:42:36.109Z,100918.63
2023-04-01T05:45:05.419Z,100925.19
2023-04-01T05:47:51.635Z,100914.63
2023-04-01T05:50:19.925Z,100928.47
2023-04-01T05:52:47.412Z,100934.53
2023-04-01T05:55:15.203Z,100925.31
2023-04-01T05:57:42.857Z,100911.88
2023-04-01T06:00:10.682Z,100920.09
2023-04-01T06:02:43.346Z,100924.50
2023-04-01T06:05:18.185Z,100932.06
2023-04-01T06:07:45.653Z,100932.44
2023-04-01T06:10:18.515Z,100921.97
2023-04-01T06:13:16.685Z,100932.81
2023-04-01T06:15:48.081Z,100936.63
2023-04-01T06:18:29.945Z,100933.97
2023-04-01T06:21:28.000Z,100925.94
2023-04-01T06:24:24.903Z,100926.34
2023-04-01T06:27:04.885Z,100932.13
2023-04-01T06:29:51.840Z,100919.72
2023-04-01T06:32:28.282Z,100937.63
2023-04-01T06:35:09.247Z,100935.84
2023-04-01T06:37:58.024Z,100924.31
2023-04-01T06:40:46.956Z,100929.31
2023-04-01T06:43:23.152Z,100912.41
2023-04-01T06:46:55.669Z,100920.91
2023-04-01T06:50:13.033Z,100933.09
2023-04-01T06:53:19.310Z,100918.06
2023-04-01T06:56:19.711Z,100923.13
2023-04-01T06:59:42.787Z,100906.31
2023-04-01T07:02:39.595Z,100926.25
2023-04-01T07:05:07.036Z,100899.09
2023-04-01T07:07:54.704Z,100908.53
2023-04-01T07:10:41.324Z,100920.16
2023-04-01T07:13:36.419Z,100920.59
2023-04-01T07:16:20.848Z,100915.09
2023-04-01T07:18:51.593Z,100930.41
2023-04-01T07:21:48.646Z,100932.50
2023-04-01T07:24:32.670Z,100915.88
2023-04-01T07:27:06.716Z,100927.88
2023-04-01T07:29:36.434Z,100929.03
2023-04-01T07:32:07.490Z,100946.72
2023-04-01T07:34:59.990Z,100939.44
2023-04-01T07:37:48.774Z,100933.59
2023-04-01T07:40:30.083Z,100930.31
2023-04-01T07:43:28.612Z,100928.81
2023-04-01T07:46:23.749Z,100924.75
2023-04-01T07:48:53.990Z,100927.22
2023-04-01T07:51:37.052Z,100932.03
2023-04-01T07:54:16.805Z,100942.28
2023-04-01T07:56:59.566Z,100943.69
2023-04-01T07:59:57.696Z,100941.66
2023-04-01T08:02:35.250Z,100946.88
2023-04-01T08:05:31.790Z,100939.44
2023-04-01T08:08:35.368Z,100942.31
2023-04-01T08:11:23.538Z,100941.59
2023-04-01T08:14:27.785Z,100939.75
2023-04-01T08:17:36.368Z,100940.91
2023-04-01T08:20:33.258Z,100944.91
2023-04-01T08:23:11.246Z,100940.13
2023-04-01T08:25:48.368Z,100951.16
2023-04-01T08:28:26.526Z,100933.31
2023-04-01T08:31:24.438Z,100933.84
2023-04-01T08:33:51.577Z,100937.47
2023-04-01T08:36:25.628Z,100936.53
2023-04-01T08:39:37.684Z,100935.97
2023-04-01T08:42:23.815Z,100953.19
2023-04-01T08:45:15.171Z,100952.22
2023-04-01T08:48:12.597Z,100956.59
2023-04-01T08:51:05.339Z,100943.03
2023-04-01T08:54:14.231Z,100967.41
2023-04-01T08:57:04.496Z,100957.97
2023-04-01T08:59:51.798Z,100961.69
2023-04-01T09:02:51.053Z,100966.72
2023-04-01T09:05:37.553Z,100954.88
2023-04-01T09:08:30.284Z,100966.78
2023-04-01T09:11:18.681Z,100959.88
2023-04-01T09:14:22.798Z,100978.97
2023-04-01T09:17:26.927Z,100972.19
2023-04-01T09:20:13.467Z,100969.38
2023-04-01T09:23:10.473Z,100961.47
2023-04-01T09:25:56.122Z,100970.56
2023-04-01T09:28:41.792Z,100974.53
2023-04-01T09:31:49.040Z,100980.88
2023-04-01T09:34:54.314Z,100979.75
2023-04-01T09:37:48.078Z,100977.09
2023-04-01T09:40:42.053Z,100987.03
2023-04-01T09:43:40.863Z,100982.22
2023-04-01T09:46:24.766Z,100989.19
2023-04-01T09:49:05.576Z,100983.56
2023-04-01T09:52:02.151Z,100985.00
2023-04-01T09:54:33.751Z,100990.50
2023-04-01T09:57:03.735Z,100982.75
2023-04-01T09:59:56.137Z,100981.59
2023-04-01T10:03:03.870Z,100972.72
2023-04-01T10:06:02.327Z,100980.59
2023-04-01T10:09:07.004Z,100987.25
2023-04-01T10:12:05.061Z,100998.28
2023-04-01T10:15:01.184Z,100997.44
2023-04-01T10:17:53.859Z,101008.09
2023-04-01T10:20:39.670Z,101002.63
2023-04-01T10:23:41.917Z,101001.97
2023-04-01T10:26:34.788Z,101007.31
2023-04-01T10:29:25.650Z,101005.66
2023-04-01T10:32:31.973Z,101014.78
2023-04-01T10:35:24.138Z,101012.72
2023-04-01T10:38:06.418Z,101007.03
2023-04-01T10:40:58.600Z,101012.97
2023-04-01T10:44:05.719Z,101019.94
2023-04-01T10:46:58.101Z,101010.59
2023-04-01T10:49:57.196Z,101025.81
2023-04-01T10:52:46.179Z,101024.31
2023-04-01T10:56:03.797Z,101024.69
2023-04-01T10:58:55.575Z,101018.41
2023-04-01T11:02:11.315Z,101029.22
2023-04-01T11:05:22.640Z,101040.00
2023-04-01T11:08:27.247Z,101037.75
2023-04-01T11:11:36.529Z,101030.63
2023-04-01T11:14:23.873Z,101037.47
2023-04-01T11:17:31.502Z,101041.84
2023-04-01T11:20:07.786Z,101037.91
2023-04-01T11:23:03.562Z,101047.44
2023-04-01T11:25:49.687Z,101048.28
2023-04-01T11:28:45.356Z,101047.78
2023-04-01T11:31:27.030Z,101047.53
2023-04-01T11:34:09.245Z,101048.38
2023-04-01T11:37:02.301Z,101047.06
2023-04-01T11:40:07.716Z,101052.78
2023-04-01T11:43:51.900Z,101054.84
2023-04-01T11:46:43.161Z,101070.56
2023-04-01T11:49:45.578Z,101069.44
2023-04-01T11:53:09.858Z,101075.16
2023-04-01T11:55:52.100Z,101081.22
2023-04-01T11:58:25.214Z,101080.91
2023-04-01T12:01:04.766Z,101074.91
2023-04-01T12:03:44.414Z,101081.28
2023-04-01T12:06:36.007Z,101088.63
2023-04-01T12:09:25.384Z,101089.72
2023-04-01T12:12:07.567Z,101094.69
2023-04-01T12:14:59.831Z,101096.13
2023-04-01T12:17:27.251Z,101091.25
2023-04-01T12:20:12.602Z,101089.25
2023-04-01T12:22:58.983Z,101094.00
2023-04-01T12:25:26.134Z,101096.81
2023-04-01T12:28:19.140Z,101100.59
2023-04-01T12:30:52.320Z,101096.47
2023-04-01T12:33:38.602Z,101110.56
2023-04-01T12:36:27.606Z,101114.19
2023-04-01T12:39:23.785Z,101116.16
2023-04-01T12:42:17.469Z,101115.41
2023-04-01T12:45:12.656Z,101125.97
2023-04-01T12:48:02.747Z,101124.44
2023-04-01T12:50:42.378Z,101127.97
2023-04-01T12:53:36.658Z,101135.16
2023-04-01T12:56:04.551Z,101137.03
2023-04-01T12:58:50.765Z,101142.28
2023-04-01T13:01:30.580Z,101142.53
2023-04-01T13:04:22.102Z,101148.66
2023-04-01T13:07:02.666Z,101144.31
2023-04-01T13:09:36.888Z,101158.34
2023-04-01T13:12:25.804Z,101158.38
2023-04-01T13:15:31.566Z,101159.34
2023-04-01T13:18:07.959Z,101155.13
2023-04-01T13:20:50.979Z,101154.44
2023-04-01T13:23:41.764Z,101156.28
2023-04-01T13:26:15.556Z,101163.50
2023-04-01T13:29:05.079Z,101165.38
2023-04-01T13:31:50.728Z,101163.75
2023-04-01T13:34:23.862Z,101170.81
2023-04-01T13:36:52.006Z,101173.56
2023-04-01T13:39:44.416Z,101167.44
2023-04-01T13:42:18.426Z,101169.22
2023-04-01T13:45:01.094Z,101166.69
2023-04-01T13:47:32.428Z,101172.94
2023-04-01T13:50:24.719Z,101167.00
2023-04-01T13:53:07.171Z,101167.19
2023-04-01T13:55:49.411Z,101165.63
2023-04-01T13:58:44.247Z,101167.47
2023-04-01T14:01:43.338Z,101171.03
2023-04-01T14:04:23.206Z,101168.56
2023-04-01T14:07:02.093Z,101173.84
2023-04-01T14:09:46.725Z,101177.38
2023-04-01T14:12:39.072Z,101170.38
2023-04-01T14:15:06.645Z,101171.31
2023-04-01T14:17:55.689Z,101180.88
2023-04-01T14:20:41.181Z,101184.41
2023-04-01T14:23:49.627Z,101187.94
2023-04-01T14:26:19.629Z,101180.09
2023-04-01T14:29:05.137Z,101193.19
2023-04-01T14:31:57.914Z,101190.63
2023-04-01T14:34:56.455Z,101191.53
2023-04-01T14:37:32.225Z,101182.88
2023-04-01T14:40:30.139Z,101189.81
2023-04-01T14:43:12.560Z,101186.38
2023-04-01T14:45:46.290Z,101186.31
2023-04-01T14:48:34.621Z,101184.50
2023-04-01T14:51:27.332Z,101189.03
2023-04-01T14:54:23.989Z,101191.88
2023-04-01T14:57:12.851Z,101179.00
2023-04-01T14:59:54.966Z,101176.72
2023-04-01T15:02:30.566Z,101179.31
2023-04-01T15:05:17.646Z,101178.66
2023-04-01T15:08:10.685Z,101190.09
2023-04-01T15:10:52.800Z,101188.44
2023-04-01T15:13:42.948Z,101191.25
2023-04-01T15:16:32.630Z,101186.97
2023-04-01T15:19:37.775Z,101173.03
2023-04-01T15:22:38.590Z,101185.25
2023-04-01T15:25:43.046Z,101186.19
2023-04-01T15:28:48.334Z,101187.09
2023-04-01T15:31:21.534Z,101184.53
2023-04-01T15:34:05.432Z,101188.91
2023-04-01T15:36:58.277Z,101188.03
2023-04-01T15:39:48.409Z,101185.44
2023-04-01T15:42:31.382Z,101184.59
2023-04-01T15:45:04.650Z,101184.59
2023-04-01T15:47:36.228Z,101185.63
2023-04-01T15:50:37.966Z,101179.50
2023-04-01T15:53:26.928Z,101181.25
2023-04-01T15:56:12.017Z,101180.41
2023-04-01T15:58:47.188Z,101182.06
2023-04-01T16:01:41.336Z,101183.78
2023-04-01T16:04:22.534Z,101182.06
2023-04-01T16:07:08.504Z,101176.88
2023-04-01T16:09:38.886Z,101182.06
2023-04-01T16:12:38.537Z,101183.88
2023-04-01T16:15:24.096Z,101185.63
2023-04-01T16:17:54.622Z,101195.25
2023-04-01T16:20:51.452Z,101181.28
2023-04-01T16:23:20.325Z,101184.78
2023-04-01T16:25:56.262Z,101185.63
2023-04-01T16:28:56.062Z,101186.44
2023-04-01T16:31:43.345Z,101186.50
2023-04-01T16:34:42.759Z,101185.63
2023-04-01T16:37:43.667Z,101193.47
2023-04-01T16:40:22.277Z,101184.78
2023-04-01T16:43:29.556Z,101187.41
2023-04-01T16:46:34.728Z,101195.25
2023-04-01T16:49:02.386Z,101197.00
2023-04-01T16:52:03.284Z,101195.28
2023-04-01T16:54:54.350Z,101194.44
2023-04-01T16:57:26.874Z,101194.50
2023-04-01T17:00:19.448Z,101192.72
2023-04-01T17:03:09.019Z,101188.53
2023-04-01T17:05:42.000Z,101197.97
2023-04-01T17:08:14.647Z,101197.16
2023-04-01T17:11:12.882Z,101203.13
2023-04-01T17:13:50.673Z,101191.81
2023-04-01T17:16:29.122Z,101193.59
2023-04-01T17:19:25.329Z,101200.56
2023-04-01T17:22:43.233Z,101188.38
2023-04-01T17:25:28.929Z,101192.78
2023-04-01T17:28:05.459Z,101185.97
2023-04-01T17:30:47.017Z,101192.94
2023-04-01T17:33:37.248Z,101192.91
2023-04-01T17:36:18.160Z,101188.56
2023-04-01T17:39:07.379Z,101182.53
2023-04-01T17:42:16.956Z,101188.66
2023-04-01T17:45:10.116Z,101187.09
2023-04-01T17:47:49.170Z,101184.63
2023-04-01T17:50:53.850Z,101194.28
2023-04-01T17:53:33.139Z,101185.69
2023-04-01T17:56:19.402Z,101184.00
2023-04-01T17:58:50.582Z,101185.84
2023-04-01T18:01:26.853Z,101186.66
2023-04-01T18:04:31.188Z,101186.75
2023-04-01T18:07:26.194Z,101188.53
2023-04-01T18:10:18.922Z,101182.56
2023-04-01T18:13:01.822Z,101186.00
2023-04-01T18:16:10.326Z,101182.53
2023-04-01T18:18:49.921Z,101185.19
2023-04-01T18:21:17.259Z,101179.94
2023-04-01T18:24:01.774Z,101177.31
2023-04-01T18:26:38.011Z,101173.78
2023-04-01T18:29:23.209Z,101173.75
2023-04-01T18:31:53.104Z,101172.91
2023-04-01T18:35:03.894Z,101177.22
2023-04-01T18:37:37.878Z,101175.59
2023-04-01T18:40:33.426Z,101170.34
2023-04-01T18:43:28.484Z,101176.44
2023-04-01T18:46:01.100Z,101179.09
2023-04-01T18:49:03.568Z,101183.47
2023-04-01T18:51:46.649Z,101180.91
2023-04-01T18:54:22.854Z,101177.47
2023-04-01T18:56:50.376Z,101165.31
2023-04-01T18:59:28.295Z,101177.47
2023-04-01T19:02:04.542Z,101170.56
2023-04-01T19:04:38.764Z,101171.47
2023-04-01T19:07:43.240Z,101165.38
2023-04-01T19:10:22.811Z,101169.75
2023-04-01T19:12:59.350Z,101169.78
2023-04-01T19:15:29.216Z,101166.31
2023-04-01T19:18:20.808Z,101168.16
2023-04-01T19:21:02.668Z,101169.94
2023-04-01T19:23:51.675Z,101165.59
2023-04-01T19:26:49.795Z,101163.03
2023-04-01T19:29:36.608Z,101168.28
2023-04-01T19:32:25.424Z,101160.47
2023-04-01T19:34:55.275Z,101154.34
2023-04-01T19:37:24.309Z,101160.47
2023-04-01T19:40:03.744Z,101159.53
2023-04-01T19:42:47.992Z,101168.28
2023-04-01T19:45:15.380Z,101160.47
2023-04-01T19:47:54.246Z,101155.22
2023-04-01T19:50:39.880Z,101156.94
2023-04-01T19:53:36.298Z,101156.94
2023-04-01T19:56:22.648Z,101145.72
2023-04-01T19:58:52.196Z,101149.28
2023-04-01T20:01:44.335Z,101146.81
2023-04-01T20:04:14.126Z,101145.81
2023-04-01T20:07:12.381Z,101145.84
2023-04-01T20:09:58.354Z,101141.47
2023-04-01T20:12:46.972Z,101139.78
2023-04-01T20:15:27.712Z,101150.28
2023-04-01T20:17:55.590Z,101142.50
2023-04-01T20:20:27.356Z,101136.41
2023-04-01T20:23:12.533Z,101133.75
2023-04-01T20:26:10.104Z,101125.91
2023-04-01T20:28:49.321Z,101131.16
2023-04-01T20:31:25.696Z,101128.56
2023-04-01T20:34:12.881Z,101128.59
2023-04-01T20:36:46.888Z,101122.56
2023-04-01T20:39:40.864Z,101123.50
2023-04-01T20:42:29.635Z,101130.50
2023-04-01T20:45:05.672Z,101124.53
2023-04-01T20:47:46.454Z,101121.06
2023-04-01T20:50:21.355Z,101123.66
2023-04-01T20:53:12.041Z,101117.56
2023-04-01T20:55:49.128Z,101112.38
2023-04-01T20:58:29.392Z,101112.44
2023-04-01T21:01:02.255Z,101119.38
2023-04-01T21:03:56.862Z,101117.69
2023-04-01T21:06:38.180Z,101112.66
2023-04-01T21:09:39.189Z,101117.00
2023-04-01T21:12:20.754Z,101120.56
2023-04-01T21:15:21.999Z,101114.56
2023-04-01T21:18:19.726Z,101118.13
2023-04-01T21:20:50.080Z,101119.91
2023-04-01T21:23:36.211Z,101119.88
2023-04-01T21:26:12.605Z,101119.00
2023-04-01T21:28:58.065Z,101123.38
2023-04-01T21:31:55.566Z,101125.19
2023-04-01T21:34:56.353Z,101120.97
2023-04-01T21:37:37.725Z,101118.53
2023-04-01T21:40:16.851Z,101113.25
2023-04-01T21:42:51.317Z,101121.09
2023-04-01T21:45:59.928Z,101120.25
2023-04-01T21:48:57.358Z,101121.22
2023-04-01T21:51:44.613Z,101123.03
2023-04-01T21:54:41.514Z,101129.16
2023-04-01T21:57:40.310Z,101127.38
2023-04-01T22:00:20.902Z,101123.09
2023-04-01T22:03:26.824Z,101123.91
2023-04-01T22:06:09.390Z,101120.44
2023-04-01T22:08:42.561Z,101134.41
2023-04-01T22:11:24.536Z,101135.28
2023-04-01T22:14:01.966Z,101128.38
2023-04-01T22:16:47.389Z,101136.28
2023-04-01T22:19:26.073Z,101138.88
2023-04-01T22:22:05.242Z,101145.03
2023-04-01T22:25:03.365Z,101148.53
2023-04-01T22:27:46.103Z,101149.41
2023-04-01T22:30:16.601Z,101148.50
2023-04-01T22:33:03.159Z,101151.13
2023-04-01T22:35:40.471Z,101152.06
2023-04-01T22:38:36.292Z,101154.69
2023-04-01T22:41:16.290Z,101166.84
2023-04-01T22:43:44.714Z,101159.88
2023-04-01T22:46:25.313Z,101164.22
2023-04-01T22:49:17.205Z,101157.28
2023-04-01T22:51:54.448Z,101168.63
2023-04-01T22:54:33.514Z,101167.78
2023-04-01T22:57:05.615Z,101171.34
2023-04-01T22:59:43.401Z,101169.66
2023-04-01T23:02:12.999Z,101174.94
2023-04-01T23:04:42.095Z,101186.31
2023-04-01T23:07:47.545Z,101175.91
2023-04-01T23:10:30.447Z,101183.78
2023-04-01T23:12:59.177Z,101189.06
2023-04-01T23:15:26.949Z,101182.22
2023-04-01T23:18:20.423Z,101184.84
2023-04-01T23:20:53.513Z,101188.31
2023-04-01T23:23:20.762Z,101183.06
2023-04-01T23:26:26.166Z,101196.03
2023-04-01T23:28:55.430Z,101193.38
2023-04-01T23:31:45.746Z,101191.59
2023-04-01T23:34:13.107Z,101197.63
2023-04-01T23:36:50.697Z,101196.66
2023-04-01T23:39:28.150Z,101203.50
2023-04-01T23:42:23.545Z,101204.31
2023-04-01T23:44:52.781Z,101207.63
2023-04-01T23:47:22.736Z,101201.75
2023-04-01T23:49:53.291Z,101203.22
2023-04-01T23:52:44.709Z,101204.28
2023-04-01T23:55:11.894Z,101192.78
2023-04-01T23:57:39.086Z,101197.56
